createdAt,value
2018-05-14T00:00:09.035Z,6.22
2018-05-14T00:02:36.536Z,5.45
2018-05-14T00:05:04.823Z,5.20
2018-05-14T00:07:32.374Z,5.80
2018-05-14T00:09:59.860Z,5.78
2018-05-14T00:12:27.363Z,5.80
2018-05-14T00:14:54.844Z,5.72
2018-05-14T00:17:22.360Z,5.75
2018-05-14T00:19:49.848Z,6.18
2018-05-14T00:22:17.329Z,5.60
2018-05-14T00:24:44.873Z,6.95
2018-05-14T00:27:12.346Z,5.80
2018-05-14T00:29:39.828Z,6.00
2018-05-14T00:32:08.079Z,5.82
2018-05-14T00:34:35.568Z,6.10
2018-05-14T00:37:03.102Z,6.12
2018-05-14T00:39:30.568Z,6.28
2018-05-14T00:41:58.044Z,5.80
2018-05-14T00:44:25.533Z,5.72
2018-05-14T00:46:53.070Z,6.95
2018-05-14T00:49:20.623Z,5.72
2018-05-14T00:51:48.128Z,6.20
2018-05-14T00:54:15.595Z,6.28
2018-05-14T00:56:43.074Z,7.12
2018-05-14T00:59:10.569Z,6.60
2018-05-14T01:01:38.045Z,6.93
2018-05-14T01:04:05.529Z,6.62
2018-05-14T01:06:33.059Z,6.15
2018-05-14T01:09:00.489Z,7.12
2018-05-14T01:11:27.999Z,6.32
2018-05-14T01:13:55.475Z,6.65
2018-05-14T01:16:22.960Z,7.90
2018-05-14T01:18:50.424Z,7.62
2018-05-14T01:21:17.905Z,6.35
2018-05-14T01:23:46.136Z,7.15
2018-05-14T01:26:13.655Z,7.12
2018-05-14T01:28:41.176Z,6.72
2018-05-14T01:31:08.671Z,7.10
2018-05-14T01:33:36.152Z,7.05
2018-05-14T01:36:03.627Z,7.10
2018-05-14T01:38:31.132Z,6.97
2018-05-14T01:40:58.588Z,7.85
2018-05-14T01:43:26.122Z,6.80
2018-05-14T01:45:53.594Z,6.75
2018-05-14T01:48:21.078Z,7.87
2018-05-14T01:50:48.563Z,7.40
2018-05-14T01:53:16.841Z,7.40
2018-05-14T01:55:44.323Z,7.30
2018-05-14T01:58:11.907Z,7.62
2018-05-14T02:00:39.517Z,7.60
2018-05-14T02:03:07.066Z,8.02
2018-05-14T02:05:34.592Z,7.68
2018-05-14T02:08:02.059Z,7.12
2018-05-14T02:10:29.548Z,7.32
2018-05-14T02:12:57.143Z,7.18
2018-05-14T02:15:24.626Z,7.80
2018-05-14T02:17:52.089Z,7.55
2018-05-14T02:20:19.597Z,7.40
2018-05-14T02:22:47.097Z,7.43
2018-05-14T02:25:14.645Z,7.43
2018-05-14T02:27:42.904Z,6.97
2018-05-14T02:30:10.390Z,6.70
2018-05-14T02:32:37.852Z,7.70
2018-05-14T02:35:05.350Z,7.03
2018-05-14T02:40:23.317Z,7.60
2018-05-14T02:42:50.792Z,7.70
2018-05-14T02:45:18.315Z,7.35
2018-05-14T02:47:45.788Z,7.37
2018-05-14T02:50:13.268Z,8.20
2018-05-14T02:52:40.858Z,8.02
2018-05-14T02:55:08.348Z,7.75
2018-05-14T02:57:35.839Z,7.57
2018-05-14T03:00:04.129Z,8.63
2018-05-14T03:02:32.417Z,7.55
2018-05-14T03:05:00.109Z,7.50
2018-05-14T03:07:27.522Z,8.30
2018-05-14T03:09:55.005Z,8.90
2018-05-14T03:12:22.490Z,7.78
2018-05-14T03:14:49.979Z,7.20
2018-05-14T03:17:17.458Z,7.05
2018-05-14T03:19:45.201Z,8.77
2018-05-14T03:22:12.693Z,8.73
2018-05-14T03:24:40.214Z,7.70
2018-05-14T03:27:07.862Z,7.25
2018-05-14T03:29:35.297Z,8.40
2018-05-14T03:32:23.898Z,8.68
2018-05-14T03:34:52.173Z,8.20
2018-05-14T03:37:19.649Z,7.60
2018-05-14T03:39:47.140Z,7.90
2018-05-14T03:42:14.647Z,7.70
2018-05-14T03:44:42.884Z,7.60
2018-05-14T03:47:10.372Z,8.13
2018-05-14T03:49:37.857Z,8.60
2018-05-14T03:52:07.309Z,7.68
2018-05-14T03:54:34.854Z,9.50
2018-05-14T03:57:02.373Z,8.75
2018-05-14T03:59:41.652Z,7.68
2018-05-14T04:02:22.836Z,8.43
2018-05-14T04:07:57.893Z,8.93
2018-05-14T04:10:27.293Z,8.75
2018-05-14T04:12:54.859Z,8.57
2018-05-14T04:15:22.355Z,9.60
2018-05-14T04:17:49.861Z,9.05
2018-05-14T04:20:18.346Z,7.78
2018-05-14T04:22:45.885Z,8.73
2018-05-14T04:25:13.550Z,7.72
2018-05-14T04:27:41.033Z,9.02
2018-05-14T04:30:08.613Z,8.32
2018-05-14T04:32:36.064Z,8.93
2018-05-14T04:35:03.529Z,9.35
2018-05-14T04:37:31.023Z,9.27
2018-05-14T04:39:58.512Z,8.82
2018-05-14T04:42:26.007Z,8.02
2018-05-14T04:44:53.476Z,8.63
2018-05-14T04:47:21.725Z,8.13
2018-05-14T04:49:49.234Z,9.02
2018-05-14T04:52:16.676Z,9.00
2018-05-14T04:54:44.220Z,8.88
2018-05-14T04:57:12.504Z,9.27
2018-05-14T04:59:40.814Z,8.15
2018-05-14T05:02:08.319Z,8.05
2018-05-14T05:04:35.813Z,9.00
2018-05-14T05:07:03.287Z,9.35
2018-05-14T05:09:30.748Z,7.95
2018-05-14T05:11:58.234Z,7.65
2018-05-14T05:14:25.730Z,8.32
2018-05-14T05:16:53.225Z,7.95
2018-05-14T05:19:20.688Z,8.30
2018-05-14T05:21:48.174Z,9.00
2018-05-14T05:24:15.663Z,7.97
2018-05-14T05:26:43.158Z,7.95
2018-05-14T05:29:10.665Z,9.00
2018-05-14T05:31:38.177Z,9.05
2018-05-14T05:34:05.669Z,8.15
2018-05-14T05:36:33.214Z,8.32
2018-05-14T05:39:00.691Z,7.50
2018-05-14T05:41:28.251Z,8.05
2018-05-14T05:43:55.722Z,8.65
2018-05-14T05:46:23.233Z,7.20
2018-05-14T05:48:50.712Z,7.43
2018-05-14T05:51:18.181Z,7.20
2018-05-14T05:53:46.413Z,6.12
2018-05-14T05:56:13.923Z,7.57
2018-05-14T05:58:41.416Z,7.78
2018-05-14T06:01:08.894Z,8.32
2018-05-14T06:03:36.378Z,7.05
2018-05-14T06:06:03.861Z,7.65
2018-05-14T06:08:31.359Z,7.15
2018-05-14T06:10:58.852Z,7.53
2018-05-14T06:13:26.658Z,8.20
2018-05-14T06:15:54.156Z,7.10
2018-05-14T06:18:21.649Z,8.35
2018-05-14T06:20:49.110Z,6.93
2018-05-14T06:23:16.590Z,7.87
2018-05-14T06:25:44.072Z,8.20
2018-05-14T06:28:11.556Z,6.50
2018-05-14T06:30:39.809Z,7.37
2018-05-14T06:33:07.297Z,6.55
2018-05-14T06:35:35.627Z,7.00
2018-05-14T06:38:03.133Z,7.30
2018-05-14T06:40:31.412Z,7.15
2018-05-14T06:42:59.027Z,7.10
2018-05-14T06:45:26.528Z,6.97
2018-05-14T06:47:54.001Z,6.20
2018-05-14T06:50:21.505Z,6.90
2018-05-14T06:52:49.008Z,7.60
2018-05-14T06:55:17.245Z,7.00
2018-05-14T06:57:44.799Z,6.57
2018-05-14T07:00:12.309Z,7.20
2018-05-14T07:02:40.598Z,6.47
2018-05-14T07:05:08.102Z,7.43
2018-05-14T07:07:35.619Z,6.40
2018-05-14T07:10:03.154Z,6.17
2018-05-14T07:12:31.408Z,6.97
2018-05-14T07:14:58.873Z,7.40
2018-05-14T07:17:27.128Z,7.33
2018-05-14T07:19:54.872Z,6.70
2018-05-14T07:22:22.924Z,7.70
2018-05-14T07:24:50.463Z,6.87
2018-05-14T07:27:17.895Z,7.40
2018-05-14T07:29:45.364Z,6.97
2018-05-14T07:32:12.869Z,6.63
2018-05-14T07:34:40.344Z,6.90
2018-05-14T07:37:08.094Z,6.90
2018-05-14T07:39:37.039Z,7.60
2018-05-14T07:42:05.268Z,7.17
2018-05-14T07:44:32.737Z,7.07
2018-05-14T07:47:00.230Z,6.17
2018-05-14T07:49:27.705Z,6.77
2018-05-14T07:51:55.205Z,5.77
2018-05-14T07:54:22.836Z,6.53
2018-05-14T07:56:51.052Z,7.23
2018-05-14T07:59:18.535Z,6.80
2018-05-14T08:01:46.004Z,7.47
2018-05-14T08:04:13.505Z,7.17
2018-05-14T08:06:40.974Z,7.73
2018-05-14T08:09:08.465Z,6.67
2018-05-14T08:11:35.964Z,6.30
2018-05-14T08:14:03.445Z,6.10
2018-05-14T08:16:30.927Z,5.90
2018-05-14T08:18:59.173Z,6.43
2018-05-14T08:21:26.624Z,6.80
2018-05-14T08:23:54.096Z,6.53
2018-05-14T08:26:21.666Z,6.57
2018-05-14T08:28:49.090Z,6.50
2018-05-14T08:31:16.590Z,6.10
2018-05-14T08:33:44.113Z,8.00
2018-05-14T08:36:11.592Z,6.83
2018-05-14T08:38:39.082Z,7.70
2018-05-14T08:41:06.560Z,6.67
2018-05-14T08:43:34.047Z,6.90
2018-05-14T08:46:01.541Z,6.70
2018-05-14T08:48:29.760Z,6.00
2018-05-14T08:50:57.222Z,5.43
2018-05-14T08:53:24.712Z,6.97
2018-05-14T08:55:52.199Z,6.47
2018-05-14T08:58:19.658Z,6.87
2018-05-14T09:00:47.220Z,6.50
2018-05-14T09:03:14.656Z,6.20
2018-05-14T09:05:42.901Z,6.27
2018-05-14T09:08:10.391Z,6.30
2018-05-14T09:10:38.673Z,5.20
2018-05-14T09:13:06.140Z,6.13
2018-05-14T09:15:33.598Z,6.73
2018-05-14T09:18:01.094Z,6.30
2018-05-14T09:20:28.600Z,5.87
2018-05-14T09:22:56.203Z,5.40
2018-05-14T09:25:24.543Z,6.27
2018-05-14T09:27:51.966Z,6.00
2018-05-14T09:30:19.435Z,6.60
2018-05-14T09:32:46.904Z,7.00
2018-05-14T09:35:15.170Z,6.20
2018-05-14T09:37:42.645Z,6.67
2018-05-14T09:40:10.888Z,6.80
2018-05-14T09:42:38.355Z,5.90
2018-05-14T09:45:05.818Z,5.90
2018-05-14T09:47:33.332Z,6.40
2018-05-14T09:50:00.836Z,6.33
2018-05-14T09:52:29.085Z,6.13
2018-05-14T09:54:56.575Z,6.63
2018-05-14T09:57:24.142Z,5.87
2018-05-14T09:59:51.583Z,6.00
2018-05-14T10:02:19.047Z,5.63
2018-05-14T10:04:46.508Z,6.67
2018-05-14T10:07:13.970Z,5.57
2018-05-14T10:09:42.213Z,6.17
2018-05-14T10:12:09.674Z,5.60
2018-05-14T10:14:37.205Z,5.60
2018-05-14T10:17:04.679Z,4.90
2018-05-14T10:19:32.153Z,5.03
2018-05-14T10:21:59.718Z,5.70
2018-05-14T10:24:27.962Z,6.80
2018-05-14T10:26:55.518Z,5.67
2018-05-14T10:29:22.990Z,5.90
2018-05-14T10:31:50.469Z,5.40
2018-05-14T10:34:18.094Z,5.33
2018-05-14T10:36:45.585Z,5.20
2018-05-14T10:39:13.070Z,6.10
2018-05-14T10:41:41.739Z,5.77
2018-05-14T10:44:09.208Z,4.83
2018-05-14T10:46:36.703Z,5.17
2018-05-14T10:49:04.202Z,4.97
2018-05-14T10:51:31.757Z,4.40
2018-05-14T10:53:59.222Z,5.90
2018-05-14T10:56:26.701Z,5.50
2018-05-14T10:58:54.191Z,5.60
2018-05-14T11:01:22.417Z,5.20
2018-05-14T11:03:49.876Z,5.40
2018-05-14T11:06:18.116Z,5.47
2018-05-14T11:08:45.572Z,5.13
2018-05-14T11:11:13.042Z,5.90
2018-05-14T11:13:40.631Z,5.23
2018-05-14T11:16:08.184Z,6.00
2018-05-14T11:18:36.422Z,6.30
2018-05-14T11:21:03.889Z,6.57
2018-05-14T11:23:31.439Z,6.03
2018-05-14T11:25:58.932Z,5.60
2018-05-14T11:28:27.231Z,6.67
2018-05-14T11:30:54.733Z,5.43
2018-05-14T11:33:22.293Z,5.80
2018-05-14T11:35:49.865Z,6.27
2018-05-14T11:38:17.461Z,6.20
2018-05-14T11:40:44.943Z,6.33
2018-05-14T11:43:12.541Z,6.60
2018-05-14T11:45:40.046Z,5.93
2018-05-14T11:48:07.589Z,6.53
2018-05-14T11:50:35.046Z,6.03
2018-05-14T11:53:02.527Z,6.67
2018-05-14T11:55:30.045Z,6.07
2018-05-14T11:57:57.553Z,5.70
2018-05-14T12:00:25.039Z,6.20
2018-05-14T12:02:52.592Z,6.30
2018-05-14T12:05:20.020Z,6.40
2018-05-14T12:07:47.746Z,5.87
2018-05-14T12:10:15.237Z,6.83
2018-05-14T12:12:42.749Z,6.63
2018-05-14T12:15:10.260Z,6.43
2018-05-14T12:17:37.739Z,5.93
2018-05-14T12:20:06.220Z,7.17
2018-05-14T12:22:33.696Z,5.90
2018-05-14T12:25:01.179Z,6.80
2018-05-14T12:27:28.641Z,5.90
2018-05-14T12:29:56.096Z,6.60
2018-05-14T12:32:23.567Z,6.17
2018-05-14T12:34:51.053Z,6.77
2018-05-14T12:37:18.545Z,5.93
2018-05-14T12:39:46.012Z,6.80
2018-05-14T12:42:14.229Z,6.57
2018-05-14T12:44:41.682Z,6.43
2018-05-14T12:47:09.159Z,5.90
2018-05-14T12:49:36.640Z,6.60
2018-05-14T12:52:04.108Z,5.90
2018-05-14T12:54:32.372Z,6.53
2018-05-14T12:56:59.820Z,7.07
2018-05-14T12:59:27.324Z,6.93
2018-05-14T13:01:54.791Z,7.77
2018-05-14T13:04:22.259Z,7.37
2018-05-14T13:06:49.706Z,7.47
2018-05-14T13:09:17.272Z,6.80
2018-05-14T13:11:44.720Z,7.60
2018-05-14T13:14:12.261Z,6.80
2018-05-14T13:16:39.737Z,7.57
2018-05-14T13:19:07.258Z,6.80
2018-05-14T13:21:34.670Z,6.33
2018-05-14T13:24:02.140Z,7.20
2018-05-14T13:26:29.632Z,7.80
2018-05-14T13:28:57.114Z,6.87
2018-05-14T13:31:24.616Z,7.90
2018-05-14T13:33:52.132Z,6.40
2018-05-14T13:36:19.591Z,6.40
2018-05-14T13:38:47.056Z,5.97
2018-05-14T13:41:14.521Z,7.40
2018-05-14T13:43:41.983Z,7.67
2018-05-14T13:46:09.446Z,6.30
2018-05-14T13:48:36.921Z,6.33
2018-05-14T13:51:04.498Z,7.20
2018-05-14T13:53:31.874Z,6.67
2018-05-14T13:55:59.331Z,6.60
2018-05-14T13:58:27.587Z,6.13
2018-05-14T14:00:55.064Z,6.80
2018-05-14T14:03:22.555Z,6.23
2018-05-14T14:05:50.018Z,6.07
2018-05-14T14:08:17.492Z,6.30
2018-05-14T14:10:44.972Z,7.00
2018-05-14T14:13:12.432Z,6.60
2018-05-14T14:15:39.909Z,6.50
2018-05-14T14:18:07.380Z,6.70
2018-05-14T14:20:34.837Z,6.87
2018-05-14T14:23:02.319Z,6.90
2018-05-14T14:25:29.798Z,6.87
2018-05-14T14:27:57.292Z,6.90
2018-05-14T14:30:24.762Z,6.90
2018-05-14T14:32:52.229Z,6.57
2018-05-14T14:35:19.732Z,6.97
2018-05-14T14:37:47.208Z,7.43
2018-05-14T14:40:15.493Z,6.73
2018-05-14T14:42:43.741Z,7.27
2018-05-14T14:45:11.207Z,7.33
2018-05-14T14:47:39.448Z,6.60
2018-05-14T14:50:06.940Z,6.73
2018-05-14T14:52:35.171Z,6.90
2018-05-14T14:55:02.636Z,5.80
2018-05-14T14:57:30.113Z,7.23
2018-05-14T14:59:57.577Z,6.40
2018-05-14T15:02:25.063Z,7.13
2018-05-14T15:04:53.301Z,6.10
2018-05-14T15:07:20.769Z,7.07
2018-05-14T15:09:48.248Z,7.83
2018-05-14T15:12:16.483Z,6.53
2018-05-14T15:14:44.072Z,6.80
2018-05-14T15:17:11.511Z,7.03
2018-05-14T15:19:39.001Z,6.47
2018-05-14T15:22:06.473Z,6.90
2018-05-14T15:24:33.954Z,6.40
2018-05-14T15:27:01.442Z,6.13
2018-05-14T15:29:28.916Z,6.90
2018-05-14T15:31:56.376Z,6.10
2018-05-14T15:34:24.621Z,6.50
2018-05-14T15:36:52.118Z,6.97
2018-05-14T15:39:20.336Z,7.47
2018-05-14T15:41:47.813Z,7.13
2018-05-14T15:44:15.281Z,7.03
2018-05-14T15:46:42.753Z,7.10
2018-05-14T15:49:10.230Z,7.60
2018-05-14T15:51:37.882Z,6.47
2018-05-14T15:54:05.336Z,6.20
2018-05-14T15:56:32.917Z,5.97
2018-05-14T15:59:00.368Z,5.90
2018-05-14T16:01:27.844Z,6.83
2018-05-14T16:03:55.327Z,5.57
2018-05-14T16:06:22.780Z,5.70
2018-05-14T16:08:50.238Z,5.77
2018-05-14T16:11:17.713Z,5.37
2018-05-14T16:13:45.168Z,5.97
2018-05-14T16:16:13.426Z,4.90
2018-05-14T16:18:40.876Z,5.00
2018-05-14T16:21:08.349Z,5.77
2018-05-14T16:23:35.810Z,5.50
2018-05-14T16:26:03.269Z,5.10
2018-05-14T16:28:30.755Z,5.20
2018-05-14T16:30:59.020Z,5.80
2018-05-14T16:33:26.460Z,5.57
2018-05-14T16:35:53.948Z,5.77
2018-05-14T16:38:21.405Z,5.17
2018-05-14T16:40:49.785Z,5.50
2018-05-14T16:43:18.021Z,5.57
2018-05-14T16:45:45.511Z,5.50
2018-05-14T16:48:12.988Z,5.70
2018-05-14T16:50:40.489Z,5.17
2018-05-14T16:53:07.953Z,5.50
2018-05-14T16:55:35.439Z,5.33
2018-05-14T16:58:02.985Z,5.13
2018-05-14T17:00:30.449Z,5.17
2018-05-14T17:02:58.699Z,5.60
2018-05-14T17:05:26.151Z,6.00
2018-05-14T17:07:53.622Z,5.00
2018-05-14T17:10:21.110Z,6.23
2018-05-14T17:12:48.554Z,5.77
2018-05-14T17:15:16.828Z,6.00
2018-05-14T17:17:45.064Z,6.10
2018-05-14T17:20:12.626Z,6.07
2018-05-14T17:22:40.108Z,6.30
2018-05-14T17:25:07.711Z,5.80
2018-05-14T17:27:35.195Z,6.30
2018-05-14T17:30:02.660Z,6.60
2018-05-14T17:32:30.139Z,5.57
2018-05-14T17:34:57.636Z,5.27
2018-05-14T17:37:25.133Z,5.83
2018-05-14T17:39:52.621Z,6.30
2018-05-14T17:42:20.144Z,5.60
2018-05-14T17:44:47.708Z,6.37
2018-05-14T17:47:15.192Z,6.57
2018-05-14T17:49:42.780Z,5.43
2018-05-14T17:52:10.357Z,6.33
2018-05-14T17:54:37.929Z,6.10
2018-05-14T17:57:05.525Z,6.00
2018-05-14T17:59:33.619Z,5.37
2018-05-14T18:02:01.120Z,5.60
2018-05-14T18:04:28.707Z,6.13
2018-05-14T18:06:56.380Z,6.90
2018-05-14T18:09:23.944Z,6.10
2018-05-14T18:11:51.672Z,7.10
2018-05-14T18:14:19.993Z,6.80
2018-05-14T18:16:47.575Z,6.80
2018-05-14T18:19:16.250Z,6.53
2018-05-14T18:24:28.818Z,6.43
2018-05-14T18:26:56.681Z,7.67
2018-05-14T18:29:30.229Z,6.80
2018-05-14T18:31:58.968Z,6.17
2018-05-14T18:34:32.186Z,7.20
2018-05-14T18:36:59.706Z,7.13
2018-05-14T18:39:27.231Z,6.90
2018-05-14T18:41:55.571Z,7.40
2018-05-14T18:44:28.651Z,7.30
2018-05-14T18:46:56.397Z,7.50
2018-05-14T18:49:23.902Z,6.63
2018-05-14T18:51:51.510Z,7.20
2018-05-14T18:54:19.338Z,5.90
2018-05-14T18:56:47.611Z,7.40
2018-05-14T18:59:15.108Z,6.50
2018-05-14T19:01:42.630Z,7.07
2018-05-14T19:04:10.150Z,6.67
2018-05-14T19:06:37.704Z,6.60
2018-05-14T19:09:05.246Z,6.40
2018-05-14T19:11:39.339Z,5.93
2018-05-14T19:14:07.681Z,7.17
2018-05-14T19:16:41.066Z,6.40
2018-05-14T19:19:08.888Z,6.67
2018-05-14T19:21:42.538Z,6.10
2018-05-14T19:24:10.044Z,6.47
2018-05-14T19:26:39.450Z,5.67
2018-05-14T19:29:13.019Z,6.10
2018-05-14T19:31:40.550Z,6.40
2018-05-14T19:34:13.669Z,6.80
2018-05-14T19:36:41.587Z,6.10
2018-05-14T19:39:09.243Z,6.50
2018-05-14T19:41:37.075Z,6.50
2018-05-14T19:44:07.697Z,7.57
2018-05-14T19:46:36.115Z,6.63
2018-05-14T19:49:04.770Z,6.23
2018-05-14T19:51:32.885Z,6.90
2018-05-14T19:54:00.352Z,6.13
2018-05-14T19:56:27.836Z,7.70
2018-05-14T19:58:55.365Z,7.23
2018-05-14T20:01:22.934Z,5.55
2018-05-14T20:03:50.457Z,7.03
2018-05-14T20:06:17.958Z,7.28
2018-05-14T20:08:46.525Z,6.30
2018-05-14T20:11:14.081Z,6.53
2018-05-14T20:13:41.579Z,7.60
2018-05-14T20:16:09.065Z,6.68
2018-05-14T20:18:36.753Z,7.30
2018-05-14T20:21:04.272Z,6.28
2018-05-14T20:23:31.766Z,6.87
2018-05-14T20:25:59.264Z,7.40
2018-05-14T20:28:27.515Z,7.85
2018-05-14T20:30:55.085Z,7.10
2018-05-14T20:33:22.640Z,7.10
2018-05-14T20:35:50.158Z,7.20
2018-05-14T20:38:17.863Z,6.97
2018-05-14T20:40:46.169Z,6.72
2018-05-14T20:43:14.572Z,7.45
2018-05-14T20:45:42.139Z,7.20
2018-05-14T20:48:09.660Z,7.32
2018-05-14T20:50:37.940Z,7.07
2018-05-14T20:53:05.458Z,7.68
2018-05-14T20:55:33.029Z,6.97
2018-05-14T20:58:00.507Z,7.40
2018-05-14T21:00:28.027Z,7.70
2018-05-14T21:02:55.523Z,8.02
2018-05-14T21:05:25.361Z,7.28
2018-05-14T21:07:57.874Z,7.87
2018-05-14T21:10:25.360Z,8.23
2018-05-14T21:12:52.873Z,8.35
2018-05-14T21:15:20.372Z,8.73
2018-05-14T21:17:47.894Z,7.93
2018-05-14T21:20:15.419Z,8.52
2018-05-14T21:22:42.929Z,7.80
2018-05-14T21:25:10.398Z,9.25
2018-05-14T21:27:37.875Z,8.90
2018-05-14T21:30:05.403Z,9.32
2018-05-14T21:32:32.893Z,8.95
2018-05-14T21:35:01.145Z,8.95
2018-05-14T21:37:28.701Z,8.48
2018-05-14T21:39:56.197Z,8.85
2018-05-14T21:42:23.701Z,8.15
2018-05-14T21:44:51.198Z,9.02
2018-05-14T21:47:19.450Z,9.10
2018-05-14T21:49:46.959Z,8.52
2018-05-14T21:52:14.494Z,8.52
2018-05-14T21:54:42.629Z,9.30
2018-05-14T21:57:10.212Z,8.25
2018-05-14T21:59:37.721Z,10.30
2018-05-14T22:02:05.306Z,8.68
2018-05-14T22:04:32.796Z,8.48
2018-05-14T22:07:01.119Z,8.90
2018-05-14T22:09:28.992Z,9.30
2018-05-14T22:11:56.566Z,10.30
2018-05-14T22:14:24.052Z,9.30
2018-05-14T22:16:51.762Z,8.25
2018-05-14T22:19:19.264Z,10.25
2018-05-14T22:21:47.811Z,9.35
2018-05-14T22:24:15.301Z,9.70
2018-05-14T22:26:42.936Z,8.55
2018-05-14T22:29:10.396Z,8.65
2018-05-14T22:31:37.906Z,9.90
2018-05-14T22:34:05.471Z,9.75
2018-05-14T22:36:33.121Z,9.30
2018-05-14T22:39:00.627Z,10.15
2018-05-14T22:41:28.109Z,11.10
2018-05-14T22:43:55.922Z,9.55
2018-05-14T22:46:23.644Z,9.95
2018-05-14T22:48:51.236Z,9.57
2018-05-14T22:51:18.819Z,9.75
2018-05-14T22:53:46.354Z,10.68
2018-05-14T22:56:13.863Z,11.20
2018-05-14T22:58:41.425Z,10.32
2018-05-14T23:01:08.909Z,10.25
2018-05-14T23:03:36.524Z,11.10
2018-05-14T23:06:04.040Z,10.35
2018-05-14T23:08:32.297Z,10.45
2018-05-14T23:10:59.795Z,10.00
2018-05-14T23:13:27.284Z,11.80
2018-05-14T23:15:54.827Z,11.10
2018-05-14T23:18:22.333Z,11.75
2018-05-14T23:20:49.819Z,11.43
2018-05-14T23:23:17.407Z,11.27
2018-05-14T23:25:44.916Z,11.85
2018-05-14T23:28:12.409Z,13.77
2018-05-14T23:30:39.931Z,13.20
2018-05-14T23:33:07.426Z,12.18
2018-05-14T23:35:35.141Z,13.40
2018-05-14T23:38:02.661Z,13.40
2018-05-14T23:40:30.132Z,13.65
2018-05-14T23:42:57.627Z,13.60
2018-05-14T23:45:25.096Z,13.45
2018-05-14T23:47:52.590Z,13.50
2018-05-14T23:50:20.104Z,12.65
2018-05-14T23:52:47.580Z,14.18
2018-05-14T23:55:15.186Z,13.10
2018-05-14T23:57:42.742Z,15.57
